sensor_id;sensor_type;location;lat;lon;timestamp;pressure;altitude;pressure_sealevel;temperature;humidity
45941;BME280;31858;46.008;8.978;2022-10-16T00:05:48;94942.56;;;14.36;100.00
45941;BME280;31858;46.008;8.978;2022-10-16T00:15:50;94936.03;;;14.41;100.00
45941;BME280;31858;46.008;8.978;2022-10-16T00:25:56;94942.59;;;14.29;100.00
45941;BME280;31858;46.008;8.978;2022-10-16T00:35:58;94941.44;;;14.27;100.00
45941;BME280;31858;46.008;8.978;2022-10-16T00:46:02;94952.56;;;14.25;100.00
45941;BME280;31858;46.008;8.978;2022-10-16T00:56:06;94957.50;;;14.37;100.00
45941;BME280;31858;46.008;8.978;2022-10-16T01:06:23;94947.97;;;14.22;100.00
45941;BME280;31858;46.008;8.978;2022-10-16T01:16:30;94940.69;;;14.19;100.00
45941;BME280;31858;46.008;8.978;2022-10-16T01:26:50;94941.47;;;14.16;100.00
45941;BME280;31858;46.008;8.978;2022-10-16T01:36:57;94946.03;;;14.19;100.00
45941;BME280;31858;46.008;8.978;2022-10-16T01:47:03;94944.47;;;14.32;100.00
45941;BME280;31858;46.008;8.978;2022-10-16T01:57:07;94943.00;;;14.17;100.00
45941;BME280;31858;46.008;8.978;2022-10-16T02:07:10;94945.28;;;14.15;100.00
45941;BME280;31858;46.008;8.978;2022-10-16T02:17:15;94944.50;;;14.25;100.00
45941;BME280;31858;46.008;8.978;2022-10-16T02:27:20;94934.13;;;14.38;100.00
45941;BME280;31858;46.008;8.978;2022-10-16T02:37:28;94937.63;;;14.24;100.00
45941;BME280;31858;46.008;8.978;2022-10-16T02:47:29;94946.81;;;14.23;100.00
45941;BME280;31858;46.008;8.978;2022-10-16T02:57:32;94947.16;;;14.40;100.00
45941;BME280;31858;46.008;8.978;2022-10-16T03:07:34;94957.91;;;14.22;100.00
45941;BME280;31858;46.008;8.978;2022-10-16T03:17:37;94966.34;;;14.13;100.00
45941;BME280;31858;46.008;8.978;2022-10-16T03:27:39;94969.38;;;14.51;100.00
45941;BME280;31858;46.008;8.978;2022-10-16T03:37:41;94978.59;;;14.25;100.00
45941;BME280;31858;46.008;8.978;2022-10-16T03:47:43;94983.19;;;14.10;100.00
45941;BME280;31858;46.008;8.978;2022-10-16T03:57:46;94984.31;;;14.02;100.00
45941;BME280;31858;46.008;8.978;2022-10-16T04:07:48;94980.88;;;13.98;100.00
45941;BME280;31858;46.008;8.978;2022-10-16T04:17:51;94992.34;;;13.88;100.00
45941;BME280;31858;46.008;8.978;2022-10-16T04:27:53;94993.50;;;13.90;100.00
45941;BME280;31858;46.008;8.978;2022-10-16T04:37:58;95003.44;;;13.93;100.00
45941;BME280;31858;46.008;8.978;2022-10-16T04:47:59;95010.69;;;13.82;100.00
45941;BME280;31858;46.008;8.978;2022-10-16T04:58:02;95017.22;;;13.99;100.00
45941;BME280;31858;46.008;8.978;2022-10-16T05:08:04;95023.34;;;13.89;100.00
45941;BME280;31858;46.008;8.978;2022-10-16T05:18:08;95014.91;;;13.83;100.00
45941;BME280;31858;46.008;8.978;2022-10-16T05:28:10;95021.03;;;13.77;100.00
45941;BME280;31858;46.008;8.978;2022-10-16T05:38:13;95019.47;;;13.72;100.00
45941;BME280;31858;46.008;8.978;2022-10-16T05:48:14;95034.41;;;13.80;100.00
45941;BME280;31858;46.008;8.978;2022-10-16T05:58:17;95045.50;;;13.71;100.00
45941;BME280;31858;46.008;8.978;2022-10-16T06:08:20;95056.22;;;13.75;100.00
45941;BME280;31858;46.008;8.978;2022-10-16T06:18:23;95069.25;;;13.87;100.00
45941;BME280;31858;46.008;8.978;2022-10-16T06:28:25;95072.34;;;13.93;100.00
45941;BME280;31858;46.008;8.978;2022-10-16T06:38:28;95091.44;;;13.84;100.00
45941;BME280;31858;46.008;8.978;2022-10-16T06:48:30;95103.34;;;13.94;100.00
45941;BME280;31858;46.008;8.978;2022-10-16T06:58:33;95113.69;;;13.99;100.00
45941;BME280;31858;46.008;8.978;2022-10-16T07:08:37;95124.41;;;14.06;100.00
45941;BME280;31858;46.008;8.978;2022-10-16T07:18:41;95135.53;;;14.12;100.00
45941;BME280;31858;46.008;8.978;2022-10-16T07:28:45;95154.31;;;14.19;100.00
45941;BME280;31858;46.008;8.978;2022-10-16T07:38:48;95161.22;;;14.23;100.00
45941;BME280;31858;46.008;8.978;2022-10-16T07:48:50;95161.22;;;14.30;100.00
45941;BME280;31858;46.008;8.978;2022-10-16T07:58:53;95174.63;;;14.37;100.00
45941;BME280;31858;46.008;8.978;2022-10-16T08:08:56;95185.78;;;14.43;100.00
45941;BME280;31858;46.008;8.978;2022-10-16T08:19:01;95189.25;;;14.51;100.00
45941;BME280;31858;46.008;8.978;2022-10-16T08:29:03;95182.75;;;14.55;100.00
45941;BME280;31858;46.008;8.978;2022-10-16T08:39:06;95203.84;;;14.71;100.00
45941;BME280;31858;46.008;8.978;2022-10-16T08:49:11;95207.31;;;14.75;100.00
45941;BME280;31858;46.008;8.978;2022-10-16T08:59:16;95207.31;;;14.86;100.00
45941;BME280;31858;46.008;8.978;2022-10-16T09:09:39;95206.16;;;14.83;100.00
45941;BME280;31858;46.008;8.978;2022-10-16T09:19:50;95219.59;;;14.97;100.00
45941;BME280;31858;46.008;8.978;2022-10-16T09:29:53;95222.66;;;15.03;100.00
45941;BME280;31858;46.008;8.978;2022-10-16T09:39:56;95226.50;;;15.13;100.00
45941;BME280;31858;46.008;8.978;2022-10-16T09:50:00;95224.22;;;15.18;100.00
45941;BME280;31858;46.008;8.978;2022-10-16T10:00:09;95221.91;;;15.45;100.00
45941;BME280;31858;46.008;8.978;2022-10-16T10:10:19;95227.28;;;15.52;100.00
45941;BME280;31858;46.008;8.978;2022-10-16T10:20:26;95222.66;;;15.56;100.00
45941;BME280;31858;46.008;8.978;2022-10-16T10:30:36;95222.63;;;15.78;100.00
45941;BME280;31858;46.008;8.978;2022-10-16T10:40:49;95216.47;;;15.88;100.00
45941;BME280;31858;46.008;8.978;2022-10-16T10:50:55;95206.41;;;16.06;100.00
45941;BME280;31858;46.008;8.978;2022-10-16T11:01:01;95200.22;;;16.20;100.00
45941;BME280;31858;46.008;8.978;2022-10-16T11:11:09;95197.06;;;16.36;100.00
45941;BME280;31858;46.008;8.978;2022-10-16T11:21:17;95197.34;;;16.59;100.00
45941;BME280;31858;46.008;8.978;2022-10-16T11:31:26;95187.31;;;16.70;100.00
45941;BME280;31858;46.008;8.978;2022-10-16T11:41:33;95191.53;;;16.64;100.00
45941;BME280;31858;46.008;8.978;2022-10-16T11:51:39;95184.97;;;16.76;100.00
45941;BME280;31858;46.008;8.978;2022-10-16T12:01:45;95172.97;;;16.87;100.00
45941;BME280;31858;46.008;8.978;2022-10-16T12:11:48;95178.63;;;17.00;100.00
45941;BME280;31858;46.008;8.978;2022-10-16T12:21:52;95173.44;;;17.23;100.00
45941;BME280;31858;46.008;8.978;2022-10-16T12:31:55;95169.44;;;17.39;100.00
45941;BME280;31858;46.008;8.978;2022-10-16T12:42:04;95172.88;;;17.43;100.00
45941;BME280;31858;46.008;8.978;2022-10-16T12:52:24;95180.78;;;17.60;100.00
45941;BME280;31858;46.008;8.978;2022-10-16T13:02:47;95172.91;;;17.80;100.00
45941;BME280;31858;46.008;8.978;2022-10-16T13:13:18;95174.19;;;18.03;100.00
45941;BME280;31858;46.008;8.978;2022-10-16T13:23:26;95172.91;;;18.14;100.00
45941;BME280;31858;46.008;8.978;2022-10-16T13:33:32;95175.69;;;18.07;100.00
45941;BME280;31858;46.008;8.978;2022-10-16T13:43:38;95180.19;;;18.17;100.00
45941;BME280;31858;46.008;8.978;2022-10-16T13:53:41;95185.19;;;18.46;100.00
45941;BME280;31858;46.008;8.978;2022-10-16T14:03:45;95194.41;;;18.48;100.00
45941;BME280;31858;46.008;8.978;2022-10-16T14:13:47;95201.59;;;18.58;100.00
45941;BME280;31858;46.008;8.978;2022-10-16T14:23:51;95208.78;;;18.72;100.00
45941;BME280;31858;46.008;8.978;2022-10-16T14:33:53;95213.03;;;18.70;100.00
45941;BME280;31858;46.008;8.978;2022-10-16T14:44:00;95223.09;;;18.69;100.00
45941;BME280;31858;46.008;8.978;2022-10-16T14:54:02;95213.88;;;18.67;100.00
45941;BME280;31858;46.008;8.978;2022-10-16T15:04:08;95227.06;;;18.57;100.00
45941;BME280;31858;46.008;8.978;2022-10-16T15:14:11;95230.66;;;18.47;100.00
45941;BME280;31858;46.008;8.978;2022-10-16T15:24:15;95243.91;;;18.35;100.00
45941;BME280;31858;46.008;8.978;2022-10-16T15:34:17;95242.38;;;18.34;100.00
45941;BME280;31858;46.008;8.978;2022-10-16T15:44:21;95254.44;;;18.25;100.00
45941;BME280;31858;46.008;8.978;2022-10-16T15:54:23;95253.88;;;18.07;100.00
45941;BME280;31858;46.008;8.978;2022-10-16T16:04:26;95267.16;;;17.91;100.00
45941;BME280;31858;46.008;8.978;2022-10-16T16:14:30;95265.44;;;17.67;100.00
45941;BME280;31858;46.008;8.978;2022-10-16T16:24:33;95273.31;;;17.43;100.00
45941;BME280;31858;46.008;8.978;2022-10-16T16:34:35;95275.00;;;17.23;100.00
45941;BME280;31858;46.008;8.978;2022-10-16T16:44:38;95293.56;;;17.07;100.00
45941;BME280;31858;46.008;8.978;2022-10-16T16:54:39;95306.69;;;16.98;100.00
45941;BME280;31858;46.008;8.978;2022-10-16T17:04:42;95328.72;;;16.78;100.00
45941;BME280;31858;46.008;8.978;2022-10-16T17:14:44;95333.25;;;16.92;100.00
45941;BME280;31858;46.008;8.978;2022-10-16T17:24:49;95354.91;;;16.63;100.00
45941;BME280;31858;46.008;8.978;2022-10-16T17:34:51;95366.13;;;16.34;100.00
45941;BME280;31858;46.008;8.978;2022-10-16T17:44:54;95361.16;;;16.11;100.00
45941;BME280;31858;46.008;8.978;2022-10-16T17:54:56;95381.16;;;15.95;100.00
45941;BME280;31858;46.008;8.978;2022-10-16T18:04:59;95391.50;;;15.79;100.00
45941;BME280;31858;46.008;8.978;2022-10-16T18:15:01;95403.03;;;15.80;100.00
45941;BME280;31858;46.008;8.978;2022-10-16T18:25:05;95417.22;;;15.77;100.00
45941;BME280;31858;46.008;8.978;2022-10-16T18:35:07;95419.13;;;15.69;100.00
45941;BME280;31858;46.008;8.978;2022-10-16T18:45:10;95424.53;;;15.58;100.00
45941;BME280;31858;46.008;8.978;2022-10-16T18:55:12;95442.13;;;15.52;100.00
45941;BME280;31858;46.008;8.978;2022-10-16T19:05:15;95439.81;;;15.51;100.00
45941;BME280;31858;46.008;8.978;2022-10-16T19:15:16;95447.50;;;15.52;100.00
45941;BME280;31858;46.008;8.978;2022-10-16T19:25:19;95454.44;;;15.57;100.00
45941;BME280;31858;46.008;8.978;2022-10-16T19:35:22;95463.66;;;15.63;100.00
45941;BME280;31858;46.008;8.978;2022-10-16T19:45:27;95463.66;;;15.63;100.00
45941;BME280;31858;46.008;8.978;2022-10-16T19:55:29;95478.25;;;15.65;100.00
45941;BME280;31858;46.008;8.978;2022-10-16T20:05:32;95485.16;;;15.59;100.00
45941;BME280;31858;46.008;8.978;2022-10-16T20:15:36;95503.94;;;15.63;100.00
45941;BME280;31858;46.008;8.978;2022-10-16T20:25:40;95510.84;;;15.64;100.00
45941;BME280;31858;46.008;8.978;2022-10-16T20:35:43;95525.81;;;15.61;100.00
45941;BME280;31858;46.008;8.978;2022-10-16T20:45:46;95532.66;;;15.48;100.00
45941;BME280;31858;46.008;8.978;2022-10-16T20:55:48;95546.03;;;15.34;100.00
45941;BME280;31858;46.008;8.978;2022-10-16T21:05:50;95545.63;;;15.28;100.00
45941;BME280;31858;46.008;8.978;2022-10-16T21:15:52;95553.31;;;15.30;100.00
45941;BME280;31858;46.008;8.978;2022-10-16T21:25:55;95561.78;;;15.36;100.00
45941;BME280;31858;46.008;8.978;2022-10-16T21:35:56;95559.34;;;15.13;100.00
45941;BME280;31858;46.008;8.978;2022-10-16T21:46:02;95573.88;;;15.05;100.00
45941;BME280;31858;46.008;8.978;2022-10-16T21:56:04;95571.22;;;15.08;100.00
45941;BME280;31858;46.008;8.978;2022-10-16T22:06:09;95580.69;;;14.91;100.00
45941;BME280;31858;46.008;8.978;2022-10-16T22:16:11;95590.94;;;14.79;100.00
45941;BME280;31858;46.008;8.978;2022-10-16T22:26:14;95587.41;;;14.67;100.00
45941;BME280;31858;46.008;8.978;2022-10-16T22:36:16;95582.19;;;14.85;100.00
45941;BME280;31858;46.008;8.978;2022-10-16T22:46:21;95589.84;;;14.83;100.00
45941;BME280;31858;46.008;8.978;2022-10-16T22:56:22;95592.34;;;14.62;100.00
45941;BME280;31858;46.008;8.978;2022-10-16T23:06:26;95594.53;;;14.49;100.00
45941;BME280;31858;46.008;8.978;2022-10-16T23:16:28;95601.06;;;14.52;100.00
45941;BME280;31858;46.008;8.978;2022-10-16T23:26:33;95595.69;;;14.48;100.00
45941;BME280;31858;46.008;8.978;2022-10-16T23:36:35;95587.50;;;14.37;100.00
45941;BME280;31858;46.008;8.978;2022-10-16T23:46:38;95586.31;;;14.28;100.00
45941;BME280;31858;46.008;8.978;2022-10-16T23:56:39;95590.75;;;14.13;100.00
